createdAt,value
2023-04-18T00:02:38.649Z,86.28
2023-04-18T00:05:18.483Z,86.37
2023-04-18T00:07:54.773Z,86.32
2023-04-18T00:10:31.187Z,86.30
2023-04-18T00:13:07.560Z,86.24
2023-04-18T00:15:44.914Z,86.27
2023-04-18T00:18:21.516Z,86.19
2023-04-18T00:20:57.792Z,86.15
2023-04-18T00:23:43.693Z,86.11
2023-04-18T00:26:20.333Z,86.11
2023-04-18T00:28:56.921Z,86.07
2023-04-18T00:31:33.574Z,86.07
2023-04-18T00:34:10.048Z,86.01
2023-04-18T00:36:46.513Z,85.95
2023-04-18T00:39:25.131Z,85.92
2023-04-18T00:42:01.765Z,85.93
2023-04-18T00:44:38.585Z,85.87
2023-04-18T00:47:14.766Z,85.79
2023-04-18T00:49:52.762Z,85.62
2023-04-18T00:52:33.901Z,85.43
2023-04-18T00:55:13.197Z,85.41
2023-04-18T00:57:49.848Z,85.41
2023-04-18T01:00:29.158Z,85.36
2023-04-18T01:03:06.791Z,85.34
2023-04-18T01:05:43.838Z,85.36
2023-04-18T01:08:20.687Z,85.31
2023-04-18T01:10:56.977Z,85.30
2023-04-18T01:13:33.243Z,85.35
2023-04-18T01:16:10.836Z,85.34
2023-04-18T01:18:47.376Z,85.36
2023-04-18T01:21:23.659Z,85.43
2023-04-18T01:24:08.021Z,85.41
2023-04-18T01:26:47.604Z,85.47
2023-04-18T01:29:23.896Z,85.51
2023-04-18T01:32:02.660Z,85.61
2023-04-18T01:34:39.627Z,85.77
2023-04-18T01:37:16.399Z,85.89
2023-04-18T01:39:53.940Z,85.96
2023-04-18T01:42:31.107Z,86.06
2023-04-18T01:45:09.461Z,86.16
2023-04-18T01:47:46.099Z,86.28
2023-04-18T01:50:22.625Z,86.13
2023-04-18T01:52:58.801Z,86.10
2023-04-18T01:55:35.364Z,86.14
2023-04-18T01:58:11.626Z,86.20
2023-04-18T02:00:47.948Z,86.17
2023-04-18T02:03:24.406Z,86.21
2023-04-18T02:06:02.627Z,86.18
2023-04-18T02:08:38.937Z,86.17
2023-04-18T02:11:15.271Z,86.16
2023-04-18T02:13:53.514Z,86.18
2023-04-18T02:16:30.422Z,86.20
2023-04-18T02:19:07.014Z,86.24
2023-04-18T02:21:44.654Z,86.27
2023-04-18T02:24:21.240Z,86.31
2023-04-18T02:26:57.586Z,86.36
2023-04-18T02:29:36.035Z,86.33
2023-04-18T02:32:13.874Z,86.37
2023-04-18T02:34:52.723Z,86.35
2023-04-18T02:37:29.201Z,86.25
2023-04-18T02:40:07.287Z,86.30
2023-04-18T02:42:43.557Z,86.23
2023-04-18T02:45:23.379Z,86.17
2023-04-18T02:48:00.127Z,86.10
2023-04-18T02:50:36.673Z,86.02
2023-04-18T02:53:13.235Z,86.07
2023-04-18T02:55:58.896Z,86.14
2023-04-18T02:58:41.653Z,86.13
2023-04-18T03:01:31.942Z,86.21
2023-04-18T03:04:16.808Z,86.19
2023-04-18T03:07:00.489Z,86.17
2023-04-18T03:09:38.028Z,86.30
2023-04-18T03:12:25.808Z,86.24
2023-04-18T03:15:03.084Z,86.15
2023-04-18T03:17:40.914Z,86.10
2023-04-18T03:20:19.557Z,86.01
2023-04-18T03:22:55.833Z,85.99
2023-04-18T03:25:34.324Z,85.94
2023-04-18T03:28:11.435Z,85.92
2023-04-18T03:30:48.903Z,85.91
2023-04-18T03:33:25.418Z,85.84
2023-04-18T03:36:06.716Z,85.79
2023-04-18T03:38:44.430Z,85.75
2023-04-18T03:41:20.942Z,85.64
2023-04-18T03:43:57.238Z,85.58
2023-04-18T03:46:33.800Z,85.51
2023-04-18T03:49:10.168Z,85.48
2023-04-18T03:51:52.154Z,85.37
2023-04-18T03:54:28.641Z,85.24
2023-04-18T03:57:04.920Z,85.16
2023-04-18T03:59:42.319Z,85.08
2023-04-18T04:02:18.834Z,84.95
2023-04-18T04:04:55.924Z,84.85
2023-04-18T04:07:33.136Z,84.69
2023-04-18T04:10:11.625Z,84.54
2023-04-18T04:12:48.363Z,84.39
2023-04-18T04:15:25.623Z,84.27
2023-04-18T04:18:06.996Z,84.17
2023-04-18T04:20:45.208Z,84.04
2023-04-18T04:23:25.609Z,83.98
2023-04-18T04:26:04.218Z,83.97
2023-04-18T04:28:53.654Z,83.83
2023-04-18T04:31:32.575Z,83.76
2023-04-18T04:34:09.734Z,83.54
2023-04-18T04:36:46.796Z,83.37
2023-04-18T04:39:23.487Z,83.19
2023-04-18T04:42:42.469Z,82.76
2023-04-18T04:45:24.759Z,82.73
2023-04-18T04:48:01.892Z,82.60
2023-04-18T04:50:42.553Z,82.59
2023-04-18T04:53:21.186Z,82.46
2023-04-18T04:55:58.699Z,82.63
2023-04-18T04:58:35.385Z,82.56
2023-04-18T05:01:30.658Z,82.37
2023-04-18T05:04:08.583Z,82.34
2023-04-18T05:06:45.263Z,82.42
2023-04-18T05:09:21.684Z,82.48
2023-04-18T05:12:04.694Z,82.39
2023-04-18T05:14:41.046Z,82.41
2023-04-18T05:17:17.288Z,82.38
2023-04-18T05:19:53.573Z,82.17
2023-04-18T05:22:30.135Z,82.01
2023-04-18T05:25:08.338Z,81.90
2023-04-18T05:27:46.368Z,81.66
2023-04-18T05:30:23.294Z,81.40
2023-04-18T05:32:59.653Z,80.96
2023-04-18T05:35:37.706Z,80.67
2023-04-18T05:38:14.120Z,80.35
2023-04-18T05:40:51.205Z,79.32
2023-04-18T05:43:27.766Z,78.54
2023-04-18T05:46:09.162Z,77.92
2023-04-18T05:48:45.675Z,77.41
2023-04-18T05:51:21.957Z,77.04
2023-04-18T05:53:58.356Z,76.97
2023-04-18T05:56:34.714Z,75.65
2023-04-18T05:59:14.959Z,75.06
2023-04-18T06:01:51.675Z,75.65
2023-04-18T06:04:28.205Z,75.79
2023-04-18T06:07:04.995Z,76.06
2023-04-18T06:09:41.470Z,76.22
2023-04-18T06:12:17.825Z,76.88
2023-04-18T06:14:54.144Z,77.22
2023-04-18T06:17:34.502Z,77.71
2023-04-18T06:20:13.726Z,77.82
2023-04-18T06:22:50.052Z,77.88
2023-04-18T06:25:27.233Z,77.92
2023-04-18T06:28:03.685Z,78.08
2023-04-18T06:30:40.199Z,78.23
2023-04-18T06:33:16.426Z,78.14
2023-04-18T06:35:53.121Z,78.25
2023-04-18T06:38:29.794Z,78.02
2023-04-18T06:41:06.289Z,78.00
2023-04-18T06:43:52.096Z,77.79
2023-04-18T06:46:38.234Z,77.64
2023-04-18T06:49:14.678Z,77.67
2023-04-18T06:51:55.720Z,77.76
2023-04-18T06:54:31.943Z,77.68
2023-04-18T06:57:10.123Z,77.38
2023-04-18T06:59:46.439Z,77.25
2023-04-18T07:02:29.046Z,77.02
2023-04-18T07:05:05.976Z,76.78
2023-04-18T07:07:42.409Z,76.69
2023-04-18T07:10:20.006Z,76.48
2023-04-18T07:12:56.301Z,76.23
2023-04-18T07:15:33.736Z,76.03
2023-04-18T07:18:11.006Z,76.35
2023-04-18T07:20:47.343Z,75.54
2023-04-18T07:23:23.737Z,75.38
2023-04-18T07:26:02.325Z,75.06
2023-04-18T07:28:38.884Z,75.01
2023-04-18T07:31:16.718Z,74.66
2023-04-18T07:33:54.394Z,74.26
2023-04-18T07:36:31.491Z,73.09
2023-04-18T07:39:08.761Z,72.27
2023-04-18T07:41:44.990Z,72.23
2023-04-18T07:44:21.711Z,70.40
2023-04-18T07:46:59.756Z,69.65
2023-04-18T07:49:36.058Z,68.69
2023-04-18T07:52:12.440Z,67.97
2023-04-18T07:54:49.008Z,67.62
2023-04-18T07:57:25.312Z,66.86
2023-04-18T08:00:01.759Z,66.67
2023-04-18T08:02:49.365Z,65.81
2023-04-18T08:05:29.423Z,65.88
2023-04-18T08:08:06.823Z,64.29
2023-04-18T08:10:43.279Z,63.38
2023-04-18T08:13:19.840Z,62.71
2023-04-18T08:15:57.959Z,62.70
2023-04-18T08:18:34.942Z,61.02
2023-04-18T08:21:11.979Z,60.26
2023-04-18T08:23:49.766Z,59.84
2023-04-18T08:26:26.383Z,60.46
2023-04-18T08:29:03.304Z,60.50
2023-04-18T08:31:39.988Z,60.00
2023-04-18T08:34:17.348Z,60.39
2023-04-18T08:36:55.051Z,60.47
2023-04-18T08:39:31.386Z,60.42
2023-04-18T08:42:11.513Z,60.29
2023-04-18T08:44:48.377Z,60.50
2023-04-18T08:47:25.840Z,60.66
2023-04-18T08:50:03.907Z,61.26
2023-04-18T08:52:47.522Z,60.87
2023-04-18T08:55:24.336Z,59.78
2023-04-18T08:58:01.743Z,60.03
2023-04-18T09:00:38.882Z,59.63
2023-04-18T09:03:18.753Z,58.88
2023-04-18T09:06:16.227Z,58.77
2023-04-18T09:09:04.482Z,58.27
2023-04-18T09:11:43.388Z,58.36
2023-04-18T09:14:29.390Z,57.82
2023-04-18T09:17:07.030Z,56.25
2023-04-18T09:19:50.508Z,55.81
2023-04-18T09:22:27.271Z,55.83
2023-04-18T09:25:05.889Z,56.45
2023-04-18T09:27:42.886Z,56.41
2023-04-18T09:30:42.288Z,55.94
2023-04-18T09:33:19.092Z,57.62
2023-04-18T09:35:55.764Z,56.24
2023-04-18T09:38:45.889Z,55.78
2023-04-18T09:41:23.560Z,55.38
2023-04-18T09:44:17.722Z,55.76
2023-04-18T09:46:55.696Z,56.24
2023-04-18T09:49:33.755Z,53.78
2023-04-18T09:52:11.345Z,54.52
2023-04-18T09:54:54.136Z,53.81
2023-04-18T09:57:34.756Z,53.14
2023-04-18T10:00:21.628Z,53.78
2023-04-18T10:03:09.997Z,55.20
2023-04-18T10:05:48.679Z,54.32
2023-04-18T10:08:27.693Z,52.33
2023-04-18T10:11:04.255Z,51.44
2023-04-18T10:13:44.440Z,50.98
2023-04-18T10:16:22.495Z,50.41
2023-04-18T10:18:59.606Z,49.33
2023-04-18T10:21:37.012Z,48.92
2023-04-18T10:24:56.391Z,49.88
2023-04-18T10:28:04.294Z,49.83
2023-04-18T10:31:04.315Z,49.84
2023-04-18T10:34:00.774Z,49.55
2023-04-18T10:37:07.823Z,49.83
2023-04-18T10:40:02.020Z,50.23
2023-04-18T10:43:06.902Z,49.60
2023-04-18T10:45:43.827Z,51.22
2023-04-18T10:48:32.786Z,52.39
2023-04-18T10:51:23.703Z,50.85
2023-04-18T10:54:03.884Z,51.23
2023-04-18T10:56:40.875Z,50.98
2023-04-18T10:59:17.699Z,50.05
2023-04-18T11:01:58.349Z,50.00
2023-04-18T11:04:37.876Z,50.48
2023-04-18T11:07:14.254Z,49.77
2023-04-18T11:09:59.791Z,48.86
2023-04-18T11:12:41.538Z,49.78
2023-04-18T11:15:22.114Z,49.72
2023-04-18T11:18:07.080Z,49.51
2023-04-18T11:20:52.438Z,50.23
2023-04-18T11:23:28.644Z,48.41
2023-04-18T11:26:07.604Z,49.70
2023-04-18T11:28:51.550Z,49.36
2023-04-18T11:31:29.864Z,48.15
2023-04-18T11:34:06.364Z,47.44
2023-04-18T11:36:42.954Z,48.43
2023-04-18T11:39:24.953Z,48.12
2023-04-18T11:42:01.977Z,48.67
2023-04-18T11:44:42.813Z,48.45
2023-04-18T11:47:33.124Z,48.26
2023-04-18T11:50:13.659Z,48.86
2023-04-18T11:52:55.439Z,48.01
2023-04-18T11:55:31.892Z,47.04
2023-04-18T11:58:08.278Z,47.99
2023-04-18T12:00:47.607Z,49.03
2023-04-18T12:03:24.870Z,47.18
2023-04-18T12:06:06.261Z,47.53
2023-04-18T12:08:45.855Z,48.59
2023-04-18T12:11:25.736Z,46.03
2023-04-18T12:14:04.113Z,45.72
2023-04-18T12:16:42.694Z,44.73
2023-04-18T12:19:20.620Z,43.58
2023-04-18T12:22:06.673Z,42.68
2023-04-18T12:24:43.587Z,44.77
2023-04-18T12:27:21.436Z,42.93
2023-04-18T12:29:58.178Z,41.14
2023-04-18T12:32:34.545Z,41.93
2023-04-18T12:35:13.695Z,42.72
2023-04-18T12:37:51.427Z,44.04
2023-04-18T12:40:28.908Z,44.49
2023-04-18T12:43:05.267Z,44.14
2023-04-18T12:45:41.841Z,42.96
2023-04-18T12:48:18.308Z,43.42
2023-04-18T12:50:54.555Z,43.90
2023-04-18T12:53:30.947Z,44.20
2023-04-18T12:56:08.228Z,43.36
2023-04-18T12:58:44.510Z,44.15
2023-04-18T13:01:21.121Z,45.19
2023-04-18T13:04:08.796Z,45.67
2023-04-18T13:06:49.031Z,44.58
2023-04-18T13:09:27.016Z,44.29
2023-04-18T13:12:03.756Z,44.19
2023-04-18T13:14:40.079Z,44.97
2023-04-18T13:17:16.557Z,44.98
2023-04-18T13:19:53.733Z,45.55
2023-04-18T13:22:31.056Z,45.49
2023-04-18T13:25:10.462Z,45.98
2023-04-18T13:27:47.227Z,45.44
2023-04-18T13:30:25.146Z,43.54
2023-04-18T13:33:01.649Z,40.48
2023-04-18T13:35:38.786Z,39.24
2023-04-18T13:38:15.153Z,39.33
2023-04-18T13:41:01.054Z,39.92
2023-04-18T13:43:45.181Z,41.10
2023-04-18T13:46:23.440Z,41.64
2023-04-18T13:49:01.280Z,42.27
2023-04-18T13:51:44.941Z,42.98
2023-04-18T13:54:21.372Z,43.51
2023-04-18T13:56:58.896Z,42.92
2023-04-18T13:59:36.755Z,43.85
2023-04-18T14:02:13.861Z,45.24
2023-04-18T14:04:52.273Z,46.00
2023-04-18T14:07:28.553Z,45.60
2023-04-18T14:10:05.259Z,44.17
2023-04-18T14:12:41.966Z,44.71
2023-04-18T14:15:19.154Z,44.81
2023-04-18T14:17:55.885Z,45.17
2023-04-18T14:20:34.716Z,45.83
2023-04-18T14:23:10.987Z,45.38
2023-04-18T14:25:47.599Z,45.59
2023-04-18T14:28:25.155Z,45.20
2023-04-18T14:31:03.122Z,45.55
2023-04-18T14:33:39.973Z,46.08
2023-04-18T14:36:17.118Z,46.07
2023-04-18T14:38:55.153Z,45.87
2023-04-18T14:41:31.595Z,45.36
2023-04-18T14:44:08.527Z,46.57
2023-04-18T14:46:46.893Z,47.30
2023-04-18T14:49:23.556Z,48.74
2023-04-18T14:51:59.956Z,47.93
2023-04-18T14:54:36.219Z,46.66
2023-04-18T14:57:13.059Z,46.71
2023-04-18T14:59:49.887Z,46.96
2023-04-18T15:02:26.524Z,45.75
2023-04-18T15:05:03.882Z,45.60
2023-04-18T15:07:40.966Z,45.89
2023-04-18T15:10:17.891Z,46.63
2023-04-18T15:12:54.362Z,47.97
2023-04-18T15:15:35.023Z,48.09
2023-04-18T15:18:13.883Z,48.84
2023-04-18T15:20:50.237Z,48.65
2023-04-18T15:23:26.725Z,48.39
2023-04-18T15:26:03.470Z,47.61
2023-04-18T15:28:41.003Z,47.94
2023-04-18T15:31:18.068Z,48.51
2023-04-18T15:33:54.405Z,49.55
2023-04-18T15:36:31.873Z,48.88
2023-04-18T15:39:09.394Z,49.33
2023-04-18T15:41:47.625Z,49.92
2023-04-18T15:44:24.175Z,49.85
2023-04-18T15:47:01.983Z,49.60
2023-04-18T15:49:39.669Z,49.89
2023-04-18T15:52:19.716Z,50.84
2023-04-18T15:54:57.702Z,50.83
2023-04-18T15:57:34.704Z,51.46
2023-04-18T16:00:16.532Z,51.02
2023-04-18T16:02:54.202Z,52.01
2023-04-18T16:05:30.987Z,52.21
2023-04-18T16:08:08.969Z,51.82
2023-04-18T16:10:45.525Z,51.89
2023-04-18T16:13:21.889Z,52.36
2023-04-18T16:15:58.313Z,53.19
2023-04-18T16:18:35.133Z,53.81
2023-04-18T16:21:13.746Z,53.50
2023-04-18T16:23:50.980Z,54.00
2023-04-18T16:26:28.769Z,54.29
2023-04-18T16:29:05.435Z,54.59
2023-04-18T16:31:43.324Z,54.75
2023-04-18T16:34:19.886Z,54.49
2023-04-18T16:36:56.656Z,54.45
2023-04-18T16:39:35.499Z,54.94
2023-04-18T16:42:14.014Z,55.81
2023-04-18T16:44:53.243Z,56.04
2023-04-18T16:47:29.992Z,56.10
2023-04-18T16:50:08.194Z,56.49
2023-04-18T16:52:45.011Z,56.69
2023-04-18T16:55:21.660Z,56.81
2023-04-18T16:57:58.334Z,56.99
2023-04-18T17:00:36.418Z,57.27
2023-04-18T17:03:14.930Z,57.65
2023-04-18T17:05:51.627Z,58.37
2023-04-18T17:08:28.819Z,58.65
2023-04-18T17:11:05.489Z,58.84
2023-04-18T17:13:41.956Z,59.02
2023-04-18T17:16:18.851Z,59.56
2023-04-18T17:18:55.610Z,59.78
2023-04-18T17:21:32.692Z,59.85
2023-04-18T17:24:10.155Z,59.89
2023-04-18T17:26:46.598Z,60.10
2023-04-18T17:29:26.595Z,60.19
2023-04-18T17:32:03.290Z,60.08
2023-04-18T17:34:39.841Z,60.36
2023-04-18T17:37:17.133Z,60.54
2023-04-18T17:39:54.678Z,61.15
2023-04-18T17:42:30.984Z,61.48
2023-04-18T17:45:11.338Z,61.65
2023-04-18T17:47:47.737Z,61.27
2023-04-18T17:50:24.491Z,61.41
2023-04-18T17:53:00.907Z,61.47
2023-04-18T17:55:45.526Z,61.62
2023-04-18T17:58:22.483Z,61.78
2023-04-18T18:01:19.768Z,61.84
2023-04-18T18:04:02.074Z,62.04
2023-04-18T18:06:39.314Z,62.34
2023-04-18T18:09:18.856Z,62.50
2023-04-18T18:11:56.124Z,63.13
2023-04-18T18:14:33.449Z,64.04
2023-04-18T18:17:18.590Z,64.91
2023-04-18T18:19:54.963Z,65.71
2023-04-18T18:22:31.944Z,66.32
2023-04-18T18:25:11.219Z,66.67
2023-04-18T18:27:47.993Z,66.99
2023-04-18T18:30:24.662Z,67.13
2023-04-18T18:33:05.722Z,67.49
2023-04-18T18:35:44.979Z,67.67
2023-04-18T18:38:21.824Z,67.89
2023-04-18T18:41:01.680Z,68.13
2023-04-18T18:43:42.925Z,68.38
2023-04-18T18:46:20.640Z,68.52
2023-04-18T18:48:57.821Z,68.58
2023-04-18T18:51:35.662Z,68.89
2023-04-18T18:54:13.342Z,68.89
2023-04-18T18:56:50.080Z,69.02
2023-04-18T18:59:27.080Z,69.22
2023-04-18T19:02:03.778Z,69.30
2023-04-18T19:04:42.527Z,69.48
2023-04-18T19:07:23.840Z,69.39
2023-04-18T19:10:01.853Z,69.64
2023-04-18T19:12:38.933Z,69.66
2023-04-18T19:15:19.781Z,69.64
2023-04-18T19:17:56.980Z,69.69
2023-04-18T19:20:38.898Z,69.51
2023-04-18T19:23:17.005Z,69.56
2023-04-18T19:25:56.756Z,69.58
2023-04-18T19:28:33.778Z,69.41
2023-04-18T19:31:11.449Z,69.32
2023-04-18T19:33:49.704Z,69.27
2023-04-18T19:36:26.976Z,69.16
2023-04-18T19:39:04.207Z,68.71
2023-04-18T19:41:41.599Z,68.37
2023-04-18T19:44:20.634Z,67.60
2023-04-18T19:46:58.135Z,67.34
2023-04-18T19:49:35.369Z,67.05
2023-04-18T19:52:13.227Z,66.95
2023-04-18T19:54:50.512Z,66.84
2023-04-18T19:57:29.054Z,66.48
2023-04-18T20:00:07.002Z,66.23
2023-04-18T20:02:49.027Z,66.31
2023-04-18T20:05:25.879Z,65.99
2023-04-18T20:08:03.116Z,66.58
2023-04-18T20:10:40.056Z,66.43
2023-04-18T20:13:16.892Z,66.33
2023-04-18T20:15:54.119Z,66.45
2023-04-18T20:18:32.168Z,66.42
2023-04-18T20:21:09.720Z,66.30
2023-04-18T20:23:46.604Z,66.32
2023-04-18T20:26:23.526Z,66.50
2023-04-18T20:29:02.349Z,66.61
2023-04-18T20:31:42.412Z,66.71
2023-04-18T20:34:19.182Z,66.96
2023-04-18T20:36:58.208Z,67.25
2023-04-18T20:39:34.851Z,67.60
2023-04-18T20:42:14.847Z,67.97
2023-04-18T20:44:51.316Z,68.22
2023-04-18T20:47:28.322Z,68.58
2023-04-18T20:50:04.899Z,68.86
2023-04-18T20:52:43.766Z,69.21
2023-04-18T20:55:20.828Z,69.47
2023-04-18T20:57:57.114Z,69.66
2023-04-18T21:00:37.857Z,70.05
2023-04-18T21:03:17.837Z,70.33
2023-04-18T21:05:54.383Z,70.66
2023-04-18T21:08:31.888Z,70.90
2023-04-18T21:11:08.787Z,71.13
2023-04-18T21:13:45.130Z,71.45
2023-04-18T21:16:21.562Z,71.72
2023-04-18T21:18:59.190Z,72.01
2023-04-18T21:21:35.766Z,72.16
2023-04-18T21:24:13.314Z,72.41
2023-04-18T21:26:49.936Z,72.87
2023-04-18T21:29:33.007Z,73.21
2023-04-18T21:32:09.718Z,73.24
2023-04-18T21:34:50.185Z,73.58
2023-04-18T21:37:27.361Z,73.85
2023-04-18T21:40:04.925Z,74.17
2023-04-18T21:42:41.552Z,74.36
2023-04-18T21:45:18.368Z,74.73
2023-04-18T21:48:11.757Z,74.96
2023-04-18T21:50:59.656Z,75.32
2023-04-18T21:53:37.203Z,75.54
2023-04-18T21:56:14.306Z,75.74
2023-04-18T21:58:51.027Z,75.97
2023-04-18T22:01:27.560Z,76.14
2023-04-18T22:04:04.327Z,76.44
2023-04-18T22:06:41.709Z,76.56
2023-04-18T22:09:19.346Z,76.76
2023-04-18T22:11:57.114Z,76.61
2023-04-18T22:14:38.322Z,76.69
2023-04-18T22:17:14.814Z,76.71
2023-04-18T22:19:51.193Z,76.75
2023-04-18T22:22:27.663Z,76.93
2023-04-18T22:25:07.458Z,77.17
2023-04-18T22:27:43.906Z,77.51
2023-04-18T22:30:21.245Z,77.62
2023-04-18T22:32:59.070Z,77.82
2023-04-18T22:35:35.516Z,77.96
2023-04-18T22:38:11.895Z,78.05
2023-04-18T22:40:48.681Z,78.08
2023-04-18T22:43:25.095Z,78.40
2023-04-18T22:46:02.218Z,78.53
2023-04-18T22:48:38.649Z,78.56
2023-04-18T22:51:15.490Z,78.71
2023-04-18T22:53:51.920Z,78.90
2023-04-18T22:56:28.395Z,79.15
2023-04-18T22:59:04.795Z,79.25
2023-04-18T23:01:44.562Z,79.26
2023-04-18T23:04:21.517Z,79.25
2023-04-18T23:06:58.058Z,79.20
2023-04-18T23:09:37.594Z,79.16
2023-04-18T23:12:14.111Z,79.13
2023-04-18T23:14:50.956Z,79.18
2023-04-18T23:17:27.214Z,79.27
2023-04-18T23:20:04.480Z,79.22
2023-04-18T23:22:41.632Z,79.23
2023-04-18T23:25:19.420Z,79.32
2023-04-18T23:27:55.754Z,79.37
2023-04-18T23:30:32.922Z,79.48
2023-04-18T23:33:09.690Z,79.58
2023-04-18T23:35:45.898Z,79.80
2023-04-18T23:38:22.219Z,79.96
2023-04-18T23:40:58.690Z,80.08
2023-04-18T23:43:36.187Z,80.10
2023-04-18T23:46:13.457Z,80.16
2023-04-18T23:48:49.749Z,80.23
2023-04-18T23:51:29.677Z,80.30
2023-04-18T23:54:06.309Z,80.35
2023-04-18T23:56:42.533Z,80.42
2023-04-18T23:59:18.721Z,80.53
